sensor_id;sensor_type;location;lat;lon;timestamp;P1;durP1;ratioP1;P2;durP2;ratioP2
13012;SDS011;22580;57.670;12.006;2022-08-04T00:01:08;0.55;;;0.40;;
13012;SDS011;22580;57.670;12.006;2022-08-04T00:03:42;0.35;;;0.35;;
13012;SDS011;22580;57.670;12.006;2022-08-04T00:06:16;0.45;;;0.45;;
13012;SDS011;22580;57.670;12.006;2022-08-04T00:08:54;0.38;;;0.38;;
13012;SDS011;22580;57.670;12.006;2022-08-04T00:11:24;0.40;;;0.40;;
13012;SDS011;22580;57.670;12.006;2022-08-04T00:13:56;0.38;;;0.38;;
13012;SDS011;22580;57.670;12.006;2022-08-04T00:16:29;0.40;;;0.40;;
13012;SDS011;22580;57.670;12.006;2022-08-04T00:19:00;0.30;;;0.20;;
13012;SDS011;22580;57.670;12.006;2022-08-04T00:21:30;0.28;;;0.28;;
13012;SDS011;22580;57.670;12.006;2022-08-04T00:24:01;0.68;;;0.50;;
13012;SDS011;22580;57.670;12.006;2022-08-04T00:26:28;0.40;;;0.40;;
13012;SDS011;22580;57.670;12.006;2022-08-04T00:28:55;0.40;;;0.40;;
13012;SDS011;22580;57.670;12.006;2022-08-04T00:31:23;0.30;;;0.30;;
13012;SDS011;22580;57.670;12.006;2022-08-04T00:33:51;0.50;;;0.40;;
13012;SDS011;22580;57.670;12.006;2022-08-04T00:36:18;0.30;;;0.30;;
13012;SDS011;22580;57.670;12.006;2022-08-04T00:38:46;0.38;;;0.38;;
13012;SDS011;22580;57.670;12.006;2022-08-04T00:41:18;0.35;;;0.35;;
13012;SDS011;22580;57.670;12.006;2022-08-04T00:43:58;0.38;;;0.32;;
13012;SDS011;22580;57.670;12.006;2022-08-04T00:46:46;0.30;;;0.30;;
13012;SDS011;22580;57.670;12.006;2022-08-04T00:52:40;0.40;;;0.40;;
13012;SDS011;22580;57.670;12.006;2022-08-04T00:55:36;0.30;;;0.30;;
13012;SDS011;22580;57.670;12.006;2022-08-04T00:58:28;0.30;;;0.30;;
13012;SDS011;22580;57.670;12.006;2022-08-04T01:01:04;0.40;;;0.40;;
13012;SDS011;22580;57.670;12.006;2022-08-04T01:03:48;0.30;;;0.30;;
13012;SDS011;22580;57.670;12.006;2022-08-04T01:06:26;0.30;;;0.30;;
13012;SDS011;22580;57.670;12.006;2022-08-04T01:09:11;0.30;;;0.30;;
13012;SDS011;22580;57.670;12.006;2022-08-04T01:12:00;0.40;;;0.40;;
13012;SDS011;22580;57.670;12.006;2022-08-04T01:14:40;0.20;;;0.20;;
13012;SDS011;22580;57.670;12.006;2022-08-04T01:17:19;0.28;;;0.28;;
13012;SDS011;22580;57.670;12.006;2022-08-04T01:19:53;0.20;;;0.20;;
13012;SDS011;22580;57.670;12.006;2022-08-04T01:22:39;0.10;;;0.10;;
13012;SDS011;22580;57.670;12.006;2022-08-04T01:29:06;0.40;;;0.40;;
13012;SDS011;22580;57.670;12.006;2022-08-04T01:31:41;0.40;;;0.40;;
13012;SDS011;22580;57.670;12.006;2022-08-04T01:34:15;0.70;;;0.40;;
13012;SDS011;22580;57.670;12.006;2022-08-04T01:36:44;0.30;;;0.30;;
13012;SDS011;22580;57.670;12.006;2022-08-04T01:39:13;0.30;;;0.30;;
13012;SDS011;22580;57.670;12.006;2022-08-04T01:41:58;0.30;;;0.30;;
13012;SDS011;22580;57.670;12.006;2022-08-04T01:44:28;0.43;;;0.30;;
13012;SDS011;22580;57.670;12.006;2022-08-04T01:46:56;0.35;;;0.35;;
13012;SDS011;22580;57.670;12.006;2022-08-04T01:49:29;0.30;;;0.30;;
13012;SDS011;22580;57.670;12.006;2022-08-04T01:51:58;0.25;;;0.25;;
13012;SDS011;22580;57.670;12.006;2022-08-04T01:54:26;0.17;;;0.17;;
13012;SDS011;22580;57.670;12.006;2022-08-04T01:56:55;0.20;;;0.20;;
13012;SDS011;22580;57.670;12.006;2022-08-04T01:59:26;0.10;;;0.10;;
13012;SDS011;22580;57.670;12.006;2022-08-04T02:02:00;0.20;;;0.20;;
13012;SDS011;22580;57.670;12.006;2022-08-04T02:04:27;0.20;;;0.20;;
13012;SDS011;22580;57.670;12.006;2022-08-04T02:07:00;0.65;;;0.52;;
13012;SDS011;22580;57.670;12.006;2022-08-04T02:09:37;0.30;;;0.30;;
13012;SDS011;22580;57.670;12.006;2022-08-04T02:12:19;0.45;;;0.45;;
13012;SDS011;22580;57.670;12.006;2022-08-04T02:14:56;0.52;;;0.50;;
13012;SDS011;22580;57.670;12.006;2022-08-04T02:17:29;1.65;;;0.60;;
13012;SDS011;22580;57.670;12.006;2022-08-04T02:20:03;1.08;;;0.50;;
13012;SDS011;22580;57.670;12.006;2022-08-04T02:22:33;0.45;;;0.45;;
13012;SDS011;22580;57.670;12.006;2022-08-04T02:25:06;0.40;;;0.40;;
13012;SDS011;22580;57.670;12.006;2022-08-04T02:27:39;0.68;;;0.60;;
13012;SDS011;22580;57.670;12.006;2022-08-04T02:30:25;0.82;;;0.80;;
13012;SDS011;22580;57.670;12.006;2022-08-04T02:32:56;0.60;;;0.60;;
13012;SDS011;22580;57.670;12.006;2022-08-04T02:35:30;0.82;;;0.82;;
13012;SDS011;22580;57.670;12.006;2022-08-04T02:38:04;0.88;;;0.57;;
13012;SDS011;22580;57.670;12.006;2022-08-04T02:40:37;0.75;;;0.60;;
13012;SDS011;22580;57.670;12.006;2022-08-04T02:43:05;0.50;;;0.50;;
13012;SDS011;22580;57.670;12.006;2022-08-04T02:45:36;0.50;;;0.50;;
13012;SDS011;22580;57.670;12.006;2022-08-04T02:48:07;0.88;;;0.57;;
13012;SDS011;22580;57.670;12.006;2022-08-04T02:50:35;1.13;;;0.75;;
13012;SDS011;22580;57.670;12.006;2022-08-04T02:53:03;0.60;;;0.60;;
13012;SDS011;22580;57.670;12.006;2022-08-04T02:55:31;0.73;;;0.73;;
13012;SDS011;22580;57.670;12.006;2022-08-04T02:58:01;0.68;;;0.63;;
13012;SDS011;22580;57.670;12.006;2022-08-04T03:00:29;0.55;;;0.55;;
13012;SDS011;22580;57.670;12.006;2022-08-04T03:03:02;0.50;;;0.50;;
13012;SDS011;22580;57.670;12.006;2022-08-04T03:05:44;0.38;;;0.38;;
13012;SDS011;22580;57.670;12.006;2022-08-04T03:08:34;0.30;;;0.30;;
13012;SDS011;22580;57.670;12.006;2022-08-04T03:20:37;0.70;;;0.70;;
13012;SDS011;22580;57.670;12.006;2022-08-04T03:23:44;0.70;;;0.70;;
13012;SDS011;22580;57.670;12.006;2022-08-04T03:30:02;0.50;;;0.50;;
13012;SDS011;22580;57.670;12.006;2022-08-04T03:32:48;0.50;;;0.50;;
13012;SDS011;22580;57.670;12.006;2022-08-04T03:39:16;0.40;;;0.40;;
13012;SDS011;22580;57.670;12.006;2022-08-04T03:42:06;0.50;;;0.50;;
13012;SDS011;22580;57.670;12.006;2022-08-04T03:44:57;0.60;;;0.60;;
13012;SDS011;22580;57.670;12.006;2022-08-04T03:48:01;0.60;;;0.60;;
13012;SDS011;22580;57.670;12.006;2022-08-04T03:50:55;0.50;;;0.50;;
13012;SDS011;22580;57.670;12.006;2022-08-04T03:54:00;0.60;;;0.60;;
13012;SDS011;22580;57.670;12.006;2022-08-04T03:56:50;0.40;;;0.40;;
13012;SDS011;22580;57.670;12.006;2022-08-04T03:59:40;0.40;;;0.40;;
13012;SDS011;22580;57.670;12.006;2022-08-04T04:02:38;0.98;;;0.60;;
13012;SDS011;22580;57.670;12.006;2022-08-04T04:08:19;0.50;;;0.50;;
13012;SDS011;22580;57.670;12.006;2022-08-04T04:13:58;0.50;;;0.50;;
13012;SDS011;22580;57.670;12.006;2022-08-04T04:16:37;0.30;;;0.30;;
13012;SDS011;22580;57.670;12.006;2022-08-04T04:19:30;0.93;;;0.50;;
13012;SDS011;22580;57.670;12.006;2022-08-04T04:22:24;0.52;;;0.40;;
13012;SDS011;22580;57.670;12.006;2022-08-04T04:25:07;0.50;;;0.50;;
13012;SDS011;22580;57.670;12.006;2022-08-04T04:27:49;0.50;;;0.50;;
13012;SDS011;22580;57.670;12.006;2022-08-04T04:30:31;0.40;;;0.40;;
13012;SDS011;22580;57.670;12.006;2022-08-04T04:33:20;0.40;;;0.40;;
13012;SDS011;22580;57.670;12.006;2022-08-04T04:36:00;0.30;;;0.30;;
13012;SDS011;22580;57.670;12.006;2022-08-04T04:38:40;0.38;;;0.38;;
13012;SDS011;22580;57.670;12.006;2022-08-04T04:41:23;0.40;;;0.40;;
13012;SDS011;22580;57.670;12.006;2022-08-04T04:44:13;0.30;;;0.30;;
13012;SDS011;22580;57.670;12.006;2022-08-04T04:46:57;0.20;;;0.20;;
13012;SDS011;22580;57.670;12.006;2022-08-04T04:49:34;0.40;;;0.40;;
13012;SDS011;22580;57.670;12.006;2022-08-04T04:52:08;0.30;;;0.30;;
13012;SDS011;22580;57.670;12.006;2022-08-04T04:54:40;0.22;;;0.22;;
13012;SDS011;22580;57.670;12.006;2022-08-04T04:57:12;0.30;;;0.30;;
13012;SDS011;22580;57.670;12.006;2022-08-04T04:59:44;0.40;;;0.40;;
13012;SDS011;22580;57.670;12.006;2022-08-04T05:02:23;0.28;;;0.28;;
13012;SDS011;22580;57.670;12.006;2022-08-04T05:14:26;0.17;;;0.17;;
13012;SDS011;22580;57.670;12.006;2022-08-04T05:16:59;0.20;;;0.20;;
13012;SDS011;22580;57.670;12.006;2022-08-04T05:19:32;0.13;;;0.13;;
13012;SDS011;22580;57.670;12.006;2022-08-04T05:22:09;0.28;;;0.20;;
13012;SDS011;22580;57.670;12.006;2022-08-04T05:24:39;0.20;;;0.20;;
13012;SDS011;22580;57.670;12.006;2022-08-04T05:27:11;0.38;;;0.30;;
13012;SDS011;22580;57.670;12.006;2022-08-04T05:29:43;0.20;;;0.20;;
13012;SDS011;22580;57.670;12.006;2022-08-04T05:32:15;0.25;;;0.25;;
13012;SDS011;22580;57.670;12.006;2022-08-04T05:34:48;0.30;;;0.30;;
13012;SDS011;22580;57.670;12.006;2022-08-04T05:37:18;0.30;;;0.30;;
13012;SDS011;22580;57.670;12.006;2022-08-04T05:39:48;0.50;;;0.50;;
13012;SDS011;22580;57.670;12.006;2022-08-04T05:42:19;0.65;;;0.65;;
13012;SDS011;22580;57.670;12.006;2022-08-04T05:44:46;1.10;;;1.00;;
13012;SDS011;22580;57.670;12.006;2022-08-04T05:47:13;0.80;;;0.80;;
13012;SDS011;22580;57.670;12.006;2022-08-04T05:49:42;0.73;;;0.73;;
13012;SDS011;22580;57.670;12.006;2022-08-04T05:52:11;0.80;;;0.80;;
13012;SDS011;22580;57.670;12.006;2022-08-04T05:54:39;0.95;;;0.95;;
13012;SDS011;22580;57.670;12.006;2022-08-04T05:57:07;0.93;;;0.93;;
13012;SDS011;22580;57.670;12.006;2022-08-04T05:59:36;0.70;;;0.70;;
13012;SDS011;22580;57.670;12.006;2022-08-04T06:02:04;0.75;;;0.75;;
13012;SDS011;22580;57.670;12.006;2022-08-04T06:04:36;0.88;;;0.88;;
13012;SDS011;22580;57.670;12.006;2022-08-04T06:07:04;0.73;;;0.73;;
13012;SDS011;22580;57.670;12.006;2022-08-04T06:09:34;0.85;;;0.85;;
13012;SDS011;22580;57.670;12.006;2022-08-04T06:12:06;0.90;;;0.90;;
13012;SDS011;22580;57.670;12.006;2022-08-04T06:14:37;1.42;;;1.30;;
13012;SDS011;22580;57.670;12.006;2022-08-04T06:17:19;1.30;;;1.13;;
13012;SDS011;22580;57.670;12.006;2022-08-04T06:19:49;2.15;;;1.25;;
13012;SDS011;22580;57.670;12.006;2022-08-04T06:22:18;1.15;;;0.98;;
13012;SDS011;22580;57.670;12.006;2022-08-04T06:24:48;1.13;;;1.08;;
13012;SDS011;22580;57.670;12.006;2022-08-04T06:27:19;0.73;;;0.73;;
13012;SDS011;22580;57.670;12.006;2022-08-04T06:29:47;0.80;;;0.80;;
13012;SDS011;22580;57.670;12.006;2022-08-04T06:32:16;1.02;;;1.02;;
13012;SDS011;22580;57.670;12.006;2022-08-04T06:34:52;0.90;;;0.90;;
13012;SDS011;22580;57.670;12.006;2022-08-04T06:37:21;0.90;;;0.90;;
13012;SDS011;22580;57.670;12.006;2022-08-04T06:39:50;0.98;;;0.98;;
13012;SDS011;22580;57.670;12.006;2022-08-04T06:42:20;1.13;;;1.13;;
13012;SDS011;22580;57.670;12.006;2022-08-04T06:44:50;1.35;;;1.20;;
13012;SDS011;22580;57.670;12.006;2022-08-04T06:47:19;1.17;;;1.17;;
13012;SDS011;22580;57.670;12.006;2022-08-04T06:49:47;1.10;;;0.85;;
13012;SDS011;22580;57.670;12.006;2022-08-04T06:52:15;0.63;;;0.63;;
13012;SDS011;22580;57.670;12.006;2022-08-04T06:54:43;0.80;;;0.80;;
13012;SDS011;22580;57.670;12.006;2022-08-04T06:57:13;0.60;;;0.60;;
13012;SDS011;22580;57.670;12.006;2022-08-04T06:59:42;0.70;;;0.70;;
13012;SDS011;22580;57.670;12.006;2022-08-04T07:02:11;1.42;;;0.90;;
13012;SDS011;22580;57.670;12.006;2022-08-04T07:04:40;0.95;;;0.80;;
13012;SDS011;22580;57.670;12.006;2022-08-04T07:07:08;0.80;;;0.80;;
13012;SDS011;22580;57.670;12.006;2022-08-04T07:09:41;1.40;;;0.90;;
13012;SDS011;22580;57.670;12.006;2022-08-04T07:12:08;0.90;;;0.90;;
13012;SDS011;22580;57.670;12.006;2022-08-04T07:14:38;1.00;;;1.00;;
13012;SDS011;22580;57.670;12.006;2022-08-04T07:17:07;0.80;;;0.80;;
13012;SDS011;22580;57.670;12.006;2022-08-04T07:19:34;0.77;;;0.77;;
13012;SDS011;22580;57.670;12.006;2022-08-04T07:22:02;0.93;;;0.93;;
13012;SDS011;22580;57.670;12.006;2022-08-04T07:24:30;1.35;;;1.27;;
13012;SDS011;22580;57.670;12.006;2022-08-04T07:26:57;1.75;;;1.17;;
13012;SDS011;22580;57.670;12.006;2022-08-04T07:29:26;0.90;;;0.90;;
13012;SDS011;22580;57.670;12.006;2022-08-04T07:31:56;0.95;;;0.95;;
13012;SDS011;22580;57.670;12.006;2022-08-04T07:34:25;1.30;;;1.20;;
13012;SDS011;22580;57.670;12.006;2022-08-04T07:36:53;1.10;;;0.90;;
13012;SDS011;22580;57.670;12.006;2022-08-04T07:39:22;1.17;;;0.95;;
13012;SDS011;22580;57.670;12.006;2022-08-04T07:41:49;0.70;;;0.70;;
13012;SDS011;22580;57.670;12.006;2022-08-04T07:44:17;0.70;;;0.70;;
13012;SDS011;22580;57.670;12.006;2022-08-04T07:46:44;0.70;;;0.70;;
13012;SDS011;22580;57.670;12.006;2022-08-04T07:49:13;1.00;;;1.00;;
13012;SDS011;22580;57.670;12.006;2022-08-04T07:51:40;0.80;;;0.80;;
13012;SDS011;22580;57.670;12.006;2022-08-04T07:54:07;0.80;;;0.80;;
13012;SDS011;22580;57.670;12.006;2022-08-04T07:56:38;0.70;;;0.70;;
13012;SDS011;22580;57.670;12.006;2022-08-04T07:59:06;1.48;;;0.90;;
13012;SDS011;22580;57.670;12.006;2022-08-04T08:01:33;0.60;;;0.60;;
13012;SDS011;22580;57.670;12.006;2022-08-04T08:04:01;0.47;;;0.47;;
13012;SDS011;22580;57.670;12.006;2022-08-04T08:06:33;0.70;;;0.70;;
13012;SDS011;22580;57.670;12.006;2022-08-04T08:09:02;0.60;;;0.60;;
13012;SDS011;22580;57.670;12.006;2022-08-04T08:11:33;0.50;;;0.50;;
13012;SDS011;22580;57.670;12.006;2022-08-04T08:14:00;0.60;;;0.60;;
13012;SDS011;22580;57.670;12.006;2022-08-04T08:16:27;0.70;;;0.70;;
13012;SDS011;22580;57.670;12.006;2022-08-04T08:18:55;0.70;;;0.70;;
13012;SDS011;22580;57.670;12.006;2022-08-04T08:21:21;0.88;;;0.88;;
13012;SDS011;22580;57.670;12.006;2022-08-04T08:23:50;0.80;;;0.80;;
13012;SDS011;22580;57.670;12.006;2022-08-04T08:26:17;0.93;;;0.80;;
13012;SDS011;22580;57.670;12.006;2022-08-04T08:28:44;2.90;;;1.13;;
13012;SDS011;22580;57.670;12.006;2022-08-04T08:31:11;1.17;;;1.17;;
13012;SDS011;22580;57.670;12.006;2022-08-04T08:34:00;1.05;;;1.05;;
13012;SDS011;22580;57.670;12.006;2022-08-04T08:39:11;1.02;;;1.02;;
13012;SDS011;22580;57.670;12.006;2022-08-04T08:47:42;0.82;;;0.80;;
13012;SDS011;22580;57.670;12.006;2022-08-04T08:50:27;1.00;;;0.95;;
13012;SDS011;22580;57.670;12.006;2022-08-04T08:53:13;0.90;;;0.90;;
13012;SDS011;22580;57.670;12.006;2022-08-04T08:56:05;0.70;;;0.70;;
13012;SDS011;22580;57.670;12.006;2022-08-04T08:58:43;0.70;;;0.70;;
13012;SDS011;22580;57.670;12.006;2022-08-04T09:01:26;0.70;;;0.70;;
13012;SDS011;22580;57.670;12.006;2022-08-04T09:07:20;0.50;;;0.50;;
13012;SDS011;22580;57.670;12.006;2022-08-04T09:10:06;0.80;;;0.80;;
13012;SDS011;22580;57.670;12.006;2022-08-04T09:12:45;0.80;;;0.80;;
13012;SDS011;22580;57.670;12.006;2022-08-04T09:15:21;0.70;;;0.70;;
13012;SDS011;22580;57.670;12.006;2022-08-04T09:17:58;0.90;;;0.90;;
13012;SDS011;22580;57.670;12.006;2022-08-04T09:20:33;0.73;;;0.73;;
13012;SDS011;22580;57.670;12.006;2022-08-04T09:23:07;0.90;;;0.90;;
13012;SDS011;22580;57.670;12.006;2022-08-04T09:25:45;0.73;;;0.73;;
13012;SDS011;22580;57.670;12.006;2022-08-04T09:28:25;1.08;;;0.98;;
13012;SDS011;22580;57.670;12.006;2022-08-04T09:30:58;0.98;;;0.98;;
13012;SDS011;22580;57.670;12.006;2022-08-04T09:33:33;1.10;;;0.93;;
13012;SDS011;22580;57.670;12.006;2022-08-04T09:36:12;0.93;;;0.93;;
13012;SDS011;22580;57.670;12.006;2022-08-04T09:41:35;0.90;;;0.90;;
13012;SDS011;22580;57.670;12.006;2022-08-04T09:44:27;1.30;;;1.20;;
13012;SDS011;22580;57.670;12.006;2022-08-04T09:47:04;1.00;;;1.00;;
13012;SDS011;22580;57.670;12.006;2022-08-04T09:49:42;1.08;;;1.05;;
13012;SDS011;22580;57.670;12.006;2022-08-04T09:52:21;1.25;;;1.15;;
13012;SDS011;22580;57.670;12.006;2022-08-04T09:55:01;1.25;;;0.88;;
13012;SDS011;22580;57.670;12.006;2022-08-04T10:04:07;1.05;;;1.00;;
13012;SDS011;22580;57.670;12.006;2022-08-04T10:11:06;1.13;;;1.08;;
13012;SDS011;22580;57.670;12.006;2022-08-04T10:16:30;0.80;;;0.80;;
13012;SDS011;22580;57.670;12.006;2022-08-04T10:19:25;1.42;;;1.30;;
13012;SDS011;22580;57.670;12.006;2022-08-04T10:21:59;0.98;;;0.98;;
13012;SDS011;22580;57.670;12.006;2022-08-04T10:24:41;1.30;;;1.20;;
13012;SDS011;22580;57.670;12.006;2022-08-04T10:27:24;1.40;;;1.30;;
13012;SDS011;22580;57.670;12.006;2022-08-04T10:29:57;1.17;;;1.17;;
13012;SDS011;22580;57.670;12.006;2022-08-04T10:32:39;1.25;;;1.15;;
13012;SDS011;22580;57.670;12.006;2022-08-04T10:35:10;1.95;;;1.50;;
13012;SDS011;22580;57.670;12.006;2022-08-04T10:37:56;1.45;;;1.35;;
13012;SDS011;22580;57.670;12.006;2022-08-04T10:40:47;1.50;;;1.40;;
13012;SDS011;22580;57.670;12.006;2022-08-04T10:43:21;1.50;;;1.40;;
13012;SDS011;22580;57.670;12.006;2022-08-04T10:46:06;1.30;;;1.20;;
13012;SDS011;22580;57.670;12.006;2022-08-04T10:48:40;1.67;;;1.58;;
13012;SDS011;22580;57.670;12.006;2022-08-04T10:51:13;1.50;;;1.40;;
13012;SDS011;22580;57.670;12.006;2022-08-04T10:53:46;1.58;;;1.48;;
13012;SDS011;22580;57.670;12.006;2022-08-04T10:56:21;1.30;;;1.20;;
13012;SDS011;22580;57.670;12.006;2022-08-04T10:58:55;1.42;;;1.13;;
13012;SDS011;22580;57.670;12.006;2022-08-04T11:01:28;2.47;;;1.25;;
13012;SDS011;22580;57.670;12.006;2022-08-04T11:03:59;2.40;;;1.42;;
13012;SDS011;22580;57.670;12.006;2022-08-04T11:06:31;1.27;;;1.17;;
13012;SDS011;22580;57.670;12.006;2022-08-04T11:08:58;1.48;;;1.38;;
13012;SDS011;22580;57.670;12.006;2022-08-04T11:11:29;1.23;;;1.10;;
13012;SDS011;22580;57.670;12.006;2022-08-04T11:14:01;1.73;;;1.63;;
13012;SDS011;22580;57.670;12.006;2022-08-04T11:16:31;1.60;;;1.40;;
13012;SDS011;22580;57.670;12.006;2022-08-04T11:19:07;1.48;;;1.38;;
13012;SDS011;22580;57.670;12.006;2022-08-04T11:21:43;1.95;;;1.52;;
13012;SDS011;22580;57.670;12.006;2022-08-04T11:24:15;2.10;;;1.40;;
13012;SDS011;22580;57.670;12.006;2022-08-04T11:26:59;1.70;;;1.60;;
13012;SDS011;22580;57.670;12.006;2022-08-04T11:29:55;1.83;;;1.60;;
13012;SDS011;22580;57.670;12.006;2022-08-04T11:32:33;1.40;;;1.30;;
13012;SDS011;22580;57.670;12.006;2022-08-04T11:35:08;1.60;;;1.50;;
13012;SDS011;22580;57.670;12.006;2022-08-04T11:37:42;1.63;;;1.50;;
13012;SDS011;22580;57.670;12.006;2022-08-04T11:40:18;2.30;;;1.58;;
13012;SDS011;22580;57.670;12.006;2022-08-04T11:42:51;1.75;;;1.60;;
13012;SDS011;22580;57.670;12.006;2022-08-04T11:45:24;2.72;;;1.67;;
13012;SDS011;22580;57.670;12.006;2022-08-04T11:47:59;1.63;;;1.50;;
13012;SDS011;22580;57.670;12.006;2022-08-04T11:50:31;2.63;;;1.73;;
13012;SDS011;22580;57.670;12.006;2022-08-04T11:53:03;1.83;;;1.33;;
13012;SDS011;22580;57.670;12.006;2022-08-04T11:55:31;1.42;;;1.05;;
13012;SDS011;22580;57.670;12.006;2022-08-04T11:58:00;1.30;;;1.20;;
13012;SDS011;22580;57.670;12.006;2022-08-04T12:00:27;1.42;;;1.25;;
13012;SDS011;22580;57.670;12.006;2022-08-04T12:03:18;1.23;;;1.13;;
13012;SDS011;22580;57.670;12.006;2022-08-04T12:05:57;1.60;;;1.20;;
13012;SDS011;22580;57.670;12.006;2022-08-04T12:08:42;1.30;;;1.10;;
13012;SDS011;22580;57.670;12.006;2022-08-04T12:11:34;1.30;;;1.20;;
13012;SDS011;22580;57.670;12.006;2022-08-04T12:14:13;1.08;;;1.08;;
13012;SDS011;22580;57.670;12.006;2022-08-04T12:16:51;2.03;;;1.42;;
13012;SDS011;22580;57.670;12.006;2022-08-04T12:19:28;1.45;;;1.35;;
13012;SDS011;22580;57.670;12.006;2022-08-04T12:21:59;1.98;;;1.50;;
13012;SDS011;22580;57.670;12.006;2022-08-04T12:24:30;1.33;;;1.23;;
13012;SDS011;22580;57.670;12.006;2022-08-04T12:27:02;1.67;;;1.30;;
13012;SDS011;22580;57.670;12.006;2022-08-04T12:29:36;1.33;;;1.20;;
13012;SDS011;22580;57.670;12.006;2022-08-04T12:32:09;1.60;;;1.50;;
13012;SDS011;22580;57.670;12.006;2022-08-04T12:34:47;1.20;;;1.20;;
13012;SDS011;22580;57.670;12.006;2022-08-04T12:37:22;1.73;;;1.30;;
13012;SDS011;22580;57.670;12.006;2022-08-04T12:39:55;1.45;;;1.35;;
13012;SDS011;22580;57.670;12.006;2022-08-04T12:42:28;1.85;;;1.25;;
13012;SDS011;22580;57.670;12.006;2022-08-04T12:45:03;1.15;;;1.10;;
13012;SDS011;22580;57.670;12.006;2022-08-04T12:47:34;1.08;;;1.08;;
13012;SDS011;22580;57.670;12.006;2022-08-04T12:50:04;1.20;;;1.10;;
13012;SDS011;22580;57.670;12.006;2022-08-04T12:52:38;1.40;;;1.30;;
13012;SDS011;22580;57.670;12.006;2022-08-04T12:55:11;1.38;;;1.27;;
13012;SDS011;22580;57.670;12.006;2022-08-04T12:57:39;2.28;;;1.40;;
13012;SDS011;22580;57.670;12.006;2022-08-04T13:00:15;1.50;;;1.40;;
13012;SDS011;22580;57.670;12.006;2022-08-04T13:02:49;1.25;;;1.10;;
13012;SDS011;22580;57.670;12.006;2022-08-04T13:05:19;1.30;;;1.20;;
13012;SDS011;22580;57.670;12.006;2022-08-04T13:07:47;1.00;;;1.00;;
13012;SDS011;22580;57.670;12.006;2022-08-04T13:10:19;1.02;;;1.02;;
13012;SDS011;22580;57.670;12.006;2022-08-04T13:12:52;1.25;;;1.15;;
13012;SDS011;22580;57.670;12.006;2022-08-04T13:15:23;0.90;;;0.90;;
13012;SDS011;22580;57.670;12.006;2022-08-04T13:17:54;0.82;;;0.82;;
13012;SDS011;22580;57.670;12.006;2022-08-04T13:20:25;0.90;;;0.90;;
13012;SDS011;22580;57.670;12.006;2022-08-04T13:22:58;0.90;;;0.90;;
13012;SDS011;22580;57.670;12.006;2022-08-04T13:25:29;1.00;;;0.90;;
13012;SDS011;22580;57.670;12.006;2022-08-04T13:28:11;1.33;;;1.23;;
13012;SDS011;22580;57.670;12.006;2022-08-04T13:30:41;1.20;;;1.20;;
13012;SDS011;22580;57.670;12.006;2022-08-04T13:33:13;0.98;;;0.98;;
13012;SDS011;22580;57.670;12.006;2022-08-04T13:35:46;1.13;;;0.98;;
13012;SDS011;22580;57.670;12.006;2022-08-04T13:38:15;0.80;;;0.80;;
13012;SDS011;22580;57.670;12.006;2022-08-04T13:40:44;0.75;;;0.75;;
13012;SDS011;22580;57.670;12.006;2022-08-04T13:43:22;0.73;;;0.73;;
13012;SDS011;22580;57.670;12.006;2022-08-04T13:45:50;0.70;;;0.70;;
13012;SDS011;22580;57.670;12.006;2022-08-04T13:48:24;0.60;;;0.60;;
13012;SDS011;22580;57.670;12.006;2022-08-04T13:50:59;1.00;;;0.80;;
13012;SDS011;22580;57.670;12.006;2022-08-04T13:53:30;0.90;;;0.90;;
13012;SDS011;22580;57.670;12.006;2022-08-04T13:56:02;0.70;;;0.70;;
13012;SDS011;22580;57.670;12.006;2022-08-04T13:58:32;0.60;;;0.60;;
13012;SDS011;22580;57.670;12.006;2022-08-04T14:01:02;0.60;;;0.60;;
13012;SDS011;22580;57.670;12.006;2022-08-04T14:03:35;0.52;;;0.52;;
13012;SDS011;22580;57.670;12.006;2022-08-04T14:06:10;0.50;;;0.50;;
13012;SDS011;22580;57.670;12.006;2022-08-04T14:08:45;0.80;;;0.80;;
13012;SDS011;22580;57.670;12.006;2022-08-04T14:11:20;2.35;;;1.30;;
13012;SDS011;22580;57.670;12.006;2022-08-04T14:13:53;2.90;;;1.77;;
13012;SDS011;22580;57.670;12.006;2022-08-04T14:16:21;1.50;;;1.40;;
13012;SDS011;22580;57.670;12.006;2022-08-04T14:18:56;1.88;;;1.40;;
13012;SDS011;22580;57.670;12.006;2022-08-04T14:21:37;1.30;;;1.20;;
13012;SDS011;22580;57.670;12.006;2022-08-04T14:24:03;0.98;;;0.80;;
13012;SDS011;22580;57.670;12.006;2022-08-04T14:26:49;0.70;;;0.70;;
13012;SDS011;22580;57.670;12.006;2022-08-04T14:29:17;0.43;;;0.43;;
13012;SDS011;22580;57.670;12.006;2022-08-04T14:31:46;0.60;;;0.60;;
13012;SDS011;22580;57.670;12.006;2022-08-04T14:34:25;0.63;;;0.63;;
13012;SDS011;22580;57.670;12.006;2022-08-04T14:36:54;0.50;;;0.50;;
13012;SDS011;22580;57.670;12.006;2022-08-04T14:39:37;0.50;;;0.50;;
13012;SDS011;22580;57.670;12.006;2022-08-04T14:42:05;0.47;;;0.47;;
13012;SDS011;22580;57.670;12.006;2022-08-04T14:44:37;0.55;;;0.40;;
13012;SDS011;22580;57.670;12.006;2022-08-04T14:47:18;0.50;;;0.50;;
13012;SDS011;22580;57.670;12.006;2022-08-04T14:49:52;0.68;;;0.40;;
13012;SDS011;22580;57.670;12.006;2022-08-04T14:52:23;0.52;;;0.50;;
13012;SDS011;22580;57.670;12.006;2022-08-04T14:54:50;0.30;;;0.30;;
13012;SDS011;22580;57.670;12.006;2022-08-04T14:57:18;0.40;;;0.40;;
13012;SDS011;22580;57.670;12.006;2022-08-04T14:59:48;0.45;;;0.45;;
13012;SDS011;22580;57.670;12.006;2022-08-04T15:02:15;0.95;;;0.60;;
13012;SDS011;22580;57.670;12.006;2022-08-04T15:04:42;1.05;;;0.52;;
13012;SDS011;22580;57.670;12.006;2022-08-04T15:07:11;0.52;;;0.43;;
13012;SDS011;22580;57.670;12.006;2022-08-04T15:09:40;0.45;;;0.40;;
13012;SDS011;22580;57.670;12.006;2022-08-04T15:12:07;0.63;;;0.40;;
13012;SDS011;22580;57.670;12.006;2022-08-04T15:14:36;0.40;;;0.38;;
13012;SDS011;22580;57.670;12.006;2022-08-04T15:17:04;0.20;;;0.20;;
13012;SDS011;22580;57.670;12.006;2022-08-04T15:19:33;0.68;;;0.40;;
13012;SDS011;22580;57.670;12.006;2022-08-04T15:22:10;0.45;;;0.35;;
13012;SDS011;22580;57.670;12.006;2022-08-04T15:24:52;0.30;;;0.30;;
13012;SDS011;22580;57.670;12.006;2022-08-04T15:27:25;0.40;;;0.40;;
13012;SDS011;22580;57.670;12.006;2022-08-04T15:30:08;0.32;;;0.32;;
13012;SDS011;22580;57.670;12.006;2022-08-04T15:32:51;0.30;;;0.30;;
13012;SDS011;22580;57.670;12.006;2022-08-04T15:35:34;0.32;;;0.32;;
13012;SDS011;22580;57.670;12.006;2022-08-04T15:38:02;0.40;;;0.40;;
13012;SDS011;22580;57.670;12.006;2022-08-04T15:40:38;0.40;;;0.38;;
13012;SDS011;22580;57.670;12.006;2022-08-04T15:43:20;0.32;;;0.32;;
13012;SDS011;22580;57.670;12.006;2022-08-04T15:46:08;0.30;;;0.30;;
13012;SDS011;22580;57.670;12.006;2022-08-04T15:48:35;0.30;;;0.30;;
13012;SDS011;22580;57.670;12.006;2022-08-04T15:51:09;0.30;;;0.30;;
13012;SDS011;22580;57.670;12.006;2022-08-04T15:56:51;1.40;;;1.17;;
13012;SDS011;22580;57.670;12.006;2022-08-04T16:02:34;0.98;;;0.70;;
13012;SDS011;22580;57.670;12.006;2022-08-04T16:07:58;0.60;;;0.60;;
13012;SDS011;22580;57.670;12.006;2022-08-04T16:10:35;0.77;;;0.70;;
13012;SDS011;22580;57.670;12.006;2022-08-04T16:13:07;0.82;;;0.70;;
13012;SDS011;22580;57.670;12.006;2022-08-04T16:15:41;0.73;;;0.73;;
13012;SDS011;22580;57.670;12.006;2022-08-04T16:18:11;2.70;;;1.30;;
13012;SDS011;22580;57.670;12.006;2022-08-04T16:20:46;1.92;;;1.15;;
13012;SDS011;22580;57.670;12.006;2022-08-04T16:26:12;2.70;;;1.60;;
13012;SDS011;22580;57.670;12.006;2022-08-04T16:28:41;2.92;;;1.40;;
13012;SDS011;22580;57.670;12.006;2022-08-04T16:31:09;1.10;;;1.00;;
13012;SDS011;22580;57.670;12.006;2022-08-04T16:33:37;2.03;;;1.30;;
13012;SDS011;22580;57.670;12.006;2022-08-04T16:36:05;1.23;;;0.98;;